createdAt,value
2023-04-09T00:02:20.704Z,82.34
2023-04-09T00:04:49.189Z,82.01
2023-04-09T00:07:17.637Z,82.71
2023-04-09T00:09:46.174Z,82.66
2023-04-09T00:12:14.570Z,82.50
2023-04-09T00:14:43.432Z,81.49
2023-04-09T00:17:12.094Z,80.82
2023-04-09T00:19:40.473Z,80.71
2023-04-09T00:22:08.870Z,80.69
2023-04-09T00:24:39.703Z,81.35
2023-04-09T00:27:08.106Z,81.45
2023-04-09T00:29:36.434Z,80.50
2023-04-09T00:32:04.912Z,79.19
2023-04-09T00:34:33.305Z,79.25
2023-04-09T00:37:02.100Z,79.05
2023-04-09T00:39:30.571Z,78.66
2023-04-09T00:42:00.066Z,78.85
2023-04-09T00:44:28.420Z,78.74
2023-04-09T00:46:57.289Z,79.67
2023-04-09T00:49:27.347Z,79.49
2023-04-09T00:51:55.952Z,78.79
2023-04-09T00:54:24.630Z,79.33
2023-04-09T00:56:53.541Z,79.35
2023-04-09T00:59:22.586Z,77.94
2023-04-09T01:01:50.973Z,77.64
2023-04-09T01:04:20.207Z,78.47
2023-04-09T01:06:57.276Z,77.98
2023-04-09T01:09:44.926Z,77.60
2023-04-09T01:12:26.995Z,78.42
2023-04-09T01:15:19.500Z,77.53
2023-04-09T01:18:01.356Z,76.83
2023-04-09T01:20:49.612Z,76.52
2023-04-09T01:23:43.946Z,76.83
2023-04-09T01:26:18.290Z,78.08
2023-04-09T01:28:55.551Z,76.94
2023-04-09T01:31:30.984Z,77.11
2023-04-09T01:34:01.810Z,77.38
2023-04-09T01:36:33.269Z,76.57
2023-04-09T01:39:05.339Z,77.26
2023-04-09T01:41:36.635Z,75.87
2023-04-09T01:44:06.980Z,74.87
2023-04-09T01:46:37.090Z,75.21
2023-04-09T01:49:07.163Z,75.90
2023-04-09T01:51:35.957Z,76.56
2023-04-09T01:54:05.338Z,74.09
2023-04-09T01:56:47.524Z,74.68
2023-04-09T01:59:16.702Z,71.84
2023-04-09T02:01:48.954Z,72.36
2023-04-09T02:04:34.720Z,72.77
2023-04-09T02:07:16.670Z,73.96
2023-04-09T02:09:49.065Z,73.74
2023-04-09T02:12:20.489Z,73.87
2023-04-09T02:14:52.943Z,74.33
2023-04-09T02:17:21.914Z,74.14
2023-04-09T02:19:50.370Z,73.20
2023-04-09T02:22:19.081Z,73.49
2023-04-09T02:24:48.494Z,71.80
2023-04-09T02:27:17.325Z,70.79
2023-04-09T02:29:45.697Z,71.58
2023-04-09T02:32:14.088Z,71.50
2023-04-09T02:34:42.409Z,70.37
2023-04-09T02:37:10.851Z,69.53
2023-04-09T02:39:39.207Z,72.30
2023-04-09T02:42:08.802Z,71.33
2023-04-09T02:44:37.180Z,68.99
2023-04-09T02:47:05.649Z,71.54
2023-04-09T02:49:34.065Z,68.84
2023-04-09T02:52:02.481Z,71.11
2023-04-09T02:54:30.888Z,68.88
2023-04-09T02:56:59.219Z,69.63
2023-04-09T02:59:27.576Z,68.02
2023-04-09T03:01:56.060Z,70.76
2023-04-09T03:04:24.556Z,69.56
2023-04-09T03:06:52.939Z,69.21
2023-04-09T03:09:21.720Z,71.03
2023-04-09T03:11:50.088Z,68.43
2023-04-09T03:14:18.466Z,68.01
2023-04-09T03:16:46.831Z,68.45
2023-04-09T03:19:15.379Z,69.24
2023-04-09T03:21:44.079Z,69.08
2023-04-09T03:24:12.412Z,68.99
2023-04-09T03:26:40.757Z,68.48
2023-04-09T03:29:09.272Z,67.51
2023-04-09T03:31:37.676Z,68.58
2023-04-09T03:34:06.296Z,68.91
2023-04-09T03:36:34.786Z,66.85
2023-04-09T03:39:03.249Z,67.98
2023-04-09T03:41:31.594Z,68.46
2023-04-09T03:43:59.967Z,68.36
2023-04-09T03:46:28.373Z,68.27
2023-04-09T03:48:56.770Z,67.66
2023-04-09T03:51:25.131Z,66.85
2023-04-09T03:53:53.501Z,67.76
2023-04-09T03:56:22.186Z,66.91
2023-04-09T03:58:50.934Z,66.40
2023-04-09T04:01:19.505Z,67.46
2023-04-09T04:03:48.174Z,66.91
2023-04-09T04:06:16.673Z,65.08
2023-04-09T04:08:45.668Z,65.81
2023-04-09T04:11:14.099Z,64.56
2023-04-09T04:13:42.514Z,65.91
2023-04-09T04:16:11.519Z,64.97
2023-04-09T04:18:39.883Z,65.34
2023-04-09T04:21:14.604Z,63.53
2023-04-09T04:23:43.208Z,63.59
2023-04-09T04:26:12.432Z,66.59
2023-04-09T04:28:42.400Z,63.73
2023-04-09T04:31:12.567Z,64.63
2023-04-09T04:33:42.690Z,64.46
2023-04-09T04:36:15.450Z,62.64
2023-04-09T04:38:43.891Z,61.32
2023-04-09T04:41:12.979Z,63.41
2023-04-09T04:43:42.411Z,64.68
2023-04-09T04:46:10.756Z,64.60
2023-04-09T04:48:39.167Z,63.69
2023-04-09T04:51:07.579Z,66.50
2023-04-09T04:53:35.913Z,66.51
2023-04-09T04:56:04.340Z,64.38
2023-04-09T04:58:32.708Z,62.86
2023-04-09T05:01:01.530Z,64.17
2023-04-09T05:03:29.970Z,62.42
2023-04-09T05:05:58.402Z,62.93
2023-04-09T05:08:26.798Z,62.82
2023-04-09T05:10:57.066Z,62.35
2023-04-09T05:13:25.889Z,64.04
2023-04-09T05:15:54.326Z,61.88
2023-04-09T05:18:22.765Z,63.33
2023-04-09T05:20:51.113Z,62.08
2023-04-09T05:23:19.473Z,64.83
2023-04-09T05:25:50.742Z,63.74
2023-04-09T05:28:19.277Z,64.38
2023-04-09T05:30:48.770Z,63.89
2023-04-09T05:33:17.343Z,61.55
2023-04-09T05:35:45.915Z,63.92
2023-04-09T05:38:17.440Z,64.00
2023-04-09T05:40:46.766Z,61.50
2023-04-09T05:43:15.208Z,63.81
2023-04-09T05:45:43.756Z,63.54
2023-04-09T05:48:12.187Z,63.38
2023-04-09T05:50:53.467Z,63.74
2023-04-09T05:53:23.455Z,63.35
2023-04-09T05:55:52.166Z,62.03
2023-04-09T05:58:20.778Z,63.16
2023-04-09T06:00:49.286Z,62.09
2023-04-09T06:03:17.866Z,63.48
2023-04-09T06:05:47.643Z,63.23
2023-04-09T06:08:16.080Z,59.90
2023-04-09T06:10:44.532Z,62.34
2023-04-09T06:13:12.906Z,61.82
2023-04-09T06:15:41.619Z,61.46
2023-04-09T06:18:10.010Z,62.11
2023-04-09T06:20:38.399Z,62.84
2023-04-09T06:23:07.189Z,60.97
2023-04-09T06:25:36.589Z,60.51
2023-04-09T06:28:05.338Z,62.32
2023-04-09T06:30:33.825Z,58.63
2023-04-09T06:33:02.223Z,61.20
2023-04-09T06:35:30.898Z,59.63
2023-04-09T06:37:59.246Z,60.36
2023-04-09T06:40:27.716Z,62.22
2023-04-09T06:42:57.013Z,61.01
2023-04-09T06:45:25.790Z,60.12
2023-04-09T06:47:54.287Z,61.02
2023-04-09T06:50:22.828Z,61.12
2023-04-09T06:52:52.257Z,61.92
2023-04-09T06:55:20.833Z,61.12
2023-04-09T06:57:49.264Z,60.71
2023-04-09T07:00:17.778Z,60.88
2023-04-09T07:02:46.382Z,61.63
2023-04-09T07:05:14.945Z,59.42
2023-04-09T07:07:45.720Z,59.16
2023-04-09T07:10:14.149Z,59.50
2023-04-09T07:12:42.517Z,58.69
2023-04-09T07:15:11.251Z,60.03
2023-04-09T07:17:39.767Z,60.80
2023-04-09T07:20:08.566Z,61.39
2023-04-09T07:22:37.681Z,61.75
2023-04-09T07:25:06.500Z,59.75
2023-04-09T07:27:34.915Z,59.06
2023-04-09T07:30:04.205Z,61.19
2023-04-09T07:32:32.647Z,60.21
2023-04-09T07:35:01.678Z,61.10
2023-04-09T07:37:30.083Z,60.27
2023-04-09T07:39:58.801Z,58.53
2023-04-09T07:42:28.118Z,58.58
2023-04-09T07:44:57.534Z,59.63
2023-04-09T07:47:25.934Z,60.14
2023-04-09T07:49:54.346Z,59.50
2023-04-09T07:52:22.726Z,58.49
2023-04-09T07:54:51.324Z,58.79
2023-04-09T07:57:19.756Z,59.87
2023-04-09T07:59:48.139Z,61.76
2023-04-09T08:02:16.998Z,60.66
2023-04-09T08:04:45.621Z,60.02
2023-04-09T08:07:14.100Z,59.92
2023-04-09T08:09:42.448Z,61.31
2023-04-09T08:12:10.849Z,61.71
2023-04-09T08:14:39.263Z,61.41
2023-04-09T08:17:07.648Z,60.65
2023-04-09T08:19:37.316Z,60.18
2023-04-09T08:22:07.195Z,62.19
2023-04-09T08:24:36.384Z,60.73
2023-04-09T08:27:05.578Z,60.35
2023-04-09T08:29:35.409Z,60.88
2023-04-09T08:32:03.990Z,60.76
2023-04-09T08:34:32.510Z,60.28
2023-04-09T08:37:01.403Z,60.21
2023-04-09T08:39:29.968Z,60.51
2023-04-09T08:42:03.475Z,60.96
2023-04-09T08:44:32.184Z,65.12
2023-04-09T08:47:02.060Z,61.27
2023-04-09T08:49:30.472Z,61.17
2023-04-09T08:51:58.983Z,61.56
2023-04-09T08:54:27.794Z,62.50
2023-04-09T08:56:57.297Z,62.27
2023-04-09T08:59:25.979Z,62.07
2023-04-09T09:02:14.538Z,61.08
2023-04-09T09:04:50.576Z,61.08
2023-04-09T09:07:19.024Z,62.56
2023-04-09T09:10:03.327Z,60.94
2023-04-09T09:12:42.785Z,60.86
2023-04-09T09:15:30.538Z,60.11
2023-04-09T09:18:01.122Z,60.81
2023-04-09T09:20:30.105Z,61.47
2023-04-09T09:22:58.660Z,60.01
2023-04-09T09:25:27.329Z,60.11
2023-04-09T09:27:56.328Z,60.69
2023-04-09T09:30:28.685Z,61.24
2023-04-09T09:33:07.707Z,62.08
2023-04-09T09:35:52.279Z,61.53
2023-04-09T09:38:21.141Z,61.56
2023-04-09T09:40:50.611Z,62.03
2023-04-09T09:43:19.076Z,61.45
2023-04-09T09:45:49.593Z,61.18
2023-04-09T09:48:18.054Z,61.33
2023-04-09T09:50:48.649Z,61.33
2023-04-09T09:53:24.032Z,61.65
2023-04-09T09:55:55.082Z,61.64
2023-04-09T09:58:35.686Z,62.23
2023-04-09T10:01:09.025Z,61.21
2023-04-09T10:03:40.622Z,61.83
2023-04-09T10:06:10.180Z,62.55
2023-04-09T10:08:43.378Z,62.72
2023-04-09T10:11:13.414Z,63.66
2023-04-09T10:13:54.144Z,63.32
2023-04-09T10:16:24.276Z,63.78
2023-04-09T10:18:56.100Z,64.83
2023-04-09T10:22:00.529Z,67.17
2023-04-09T10:24:28.870Z,67.54
2023-04-09T10:27:17.360Z,68.54
2023-04-09T10:29:50.737Z,68.55
2023-04-09T10:32:29.148Z,69.30
2023-04-09T10:35:00.231Z,69.83
2023-04-09T10:37:29.545Z,70.78
2023-04-09T10:39:58.674Z,71.17
2023-04-09T10:42:42.931Z,70.98
2023-04-09T10:45:15.684Z,70.14
2023-04-09T10:47:47.176Z,70.59
2023-04-09T10:50:26.701Z,70.39
2023-04-09T10:53:01.697Z,71.43
2023-04-09T10:55:38.090Z,71.74
2023-04-09T10:58:10.493Z,72.47
2023-04-09T11:00:45.388Z,71.65
2023-04-09T11:03:24.379Z,72.37
2023-04-09T11:06:12.458Z,72.56
2023-04-09T11:08:42.556Z,71.75
2023-04-09T11:11:12.462Z,70.99
2023-04-09T11:13:44.073Z,71.07
2023-04-09T11:16:24.753Z,70.51
2023-04-09T11:18:57.157Z,70.18
2023-04-09T11:21:32.980Z,69.89
2023-04-09T11:24:01.834Z,70.10
2023-04-09T11:26:50.149Z,71.13
2023-04-09T11:29:18.693Z,71.56
2023-04-09T11:31:47.115Z,71.88
2023-04-09T11:34:15.630Z,72.84
2023-04-09T11:36:43.983Z,73.80
2023-04-09T11:39:12.493Z,73.56
2023-04-09T11:41:41.090Z,73.02
2023-04-09T11:44:09.739Z,74.55
2023-04-09T11:46:39.753Z,74.33
2023-04-09T11:49:08.743Z,74.13
2023-04-09T11:51:37.910Z,72.84
2023-04-09T11:54:12.433Z,72.57
2023-04-09T11:56:40.916Z,72.68
2023-04-09T11:59:09.412Z,72.63
2023-04-09T12:01:37.937Z,72.99
2023-04-09T12:04:06.906Z,73.29
2023-04-09T12:06:42.741Z,73.24
2023-04-09T12:09:14.623Z,73.20
2023-04-09T12:11:45.775Z,73.58
2023-04-09T12:14:15.788Z,73.60
2023-04-09T12:16:47.579Z,73.98
2023-04-09T12:19:16.611Z,74.45
2023-04-09T12:21:51.272Z,74.49
2023-04-09T12:24:21.205Z,74.73
2023-04-09T12:26:49.949Z,75.08
2023-04-09T12:29:20.694Z,75.05
2023-04-09T12:31:49.246Z,75.13
2023-04-09T12:34:18.486Z,75.17
2023-04-09T12:36:46.859Z,75.19
2023-04-09T12:39:15.209Z,75.54
2023-04-09T12:41:43.604Z,76.10
2023-04-09T12:44:12.004Z,76.75
2023-04-09T12:46:40.399Z,76.92
2023-04-09T12:49:08.952Z,77.45
2023-04-09T12:51:38.033Z,78.21
2023-04-09T12:54:06.619Z,79.40
2023-04-09T12:56:34.981Z,80.07
2023-04-09T12:59:03.525Z,80.15
2023-04-09T13:01:32.462Z,80.03
2023-04-09T13:04:01.014Z,80.00
2023-04-09T13:06:29.376Z,79.20
2023-04-09T13:08:57.696Z,79.53
2023-04-09T13:11:26.101Z,79.86
2023-04-09T13:13:54.797Z,81.17
2023-04-09T13:16:23.297Z,81.51
2023-04-09T13:18:52.862Z,82.43
2023-04-09T13:21:21.806Z,82.49
2023-04-09T13:23:50.179Z,82.70
2023-04-09T13:26:18.575Z,82.95
2023-04-09T13:28:47.283Z,82.72
2023-04-09T13:31:15.761Z,82.83
2023-04-09T13:33:44.603Z,83.52
2023-04-09T13:36:13.185Z,83.69
2023-04-09T13:38:41.555Z,83.61
2023-04-09T13:41:09.993Z,83.59
2023-04-09T13:43:38.335Z,83.78
2023-04-09T13:46:07.813Z,83.84
2023-04-09T13:48:38.572Z,83.83
2023-04-09T13:51:07.876Z,84.34
2023-04-09T13:53:36.394Z,84.61
2023-04-09T13:56:04.816Z,84.21
2023-04-09T13:58:33.168Z,83.70
2023-04-09T14:01:03.231Z,83.47
2023-04-09T14:03:36.332Z,82.37
2023-04-09T14:06:05.366Z,83.08
2023-04-09T14:08:33.756Z,83.42
2023-04-09T14:11:02.472Z,83.20
2023-04-09T14:13:31.707Z,82.36
2023-04-09T14:16:00.624Z,82.87
2023-04-09T14:18:29.198Z,84.02
2023-04-09T14:20:58.261Z,84.34
2023-04-09T14:23:30.137Z,84.62
2023-04-09T14:25:58.734Z,84.10
2023-04-09T14:28:27.330Z,83.65
2023-04-09T14:30:55.718Z,83.64
2023-04-09T14:33:24.095Z,82.95
2023-04-09T14:35:53.303Z,83.15
2023-04-09T14:38:21.741Z,83.74
2023-04-09T14:40:50.191Z,83.66
2023-04-09T14:43:18.542Z,85.62
2023-04-09T14:45:47.210Z,87.49
2023-04-09T14:48:15.988Z,89.88
2023-04-09T14:50:44.862Z,89.88
2023-04-09T14:53:13.501Z,89.33
2023-04-09T14:55:41.933Z,89.28
2023-04-09T14:58:10.298Z,88.51
2023-04-09T15:00:39.978Z,86.60
2023-04-09T15:03:08.733Z,85.44
2023-04-09T15:05:37.511Z,86.50
2023-04-09T15:08:06.077Z,86.71
2023-04-09T15:10:34.449Z,86.73
2023-04-09T15:13:02.869Z,87.58
2023-04-09T15:15:31.561Z,86.83
2023-04-09T15:18:06.435Z,86.89
2023-04-09T15:20:39.099Z,87.18
2023-04-09T15:23:07.614Z,86.94
2023-04-09T15:25:36.290Z,86.65
2023-04-09T15:28:05.305Z,86.65
2023-04-09T15:30:33.976Z,86.73
2023-04-09T15:33:02.411Z,86.93
2023-04-09T15:35:30.972Z,86.73
2023-04-09T15:37:59.695Z,86.38
2023-04-09T15:40:29.965Z,86.59
2023-04-09T15:42:58.313Z,87.50
2023-04-09T15:45:27.770Z,86.65
2023-04-09T15:47:56.566Z,86.89
2023-04-09T15:50:25.094Z,86.38
2023-04-09T15:52:53.501Z,86.45
2023-04-09T15:55:23.427Z,86.99
2023-04-09T15:57:51.788Z,87.11
2023-04-09T16:00:20.388Z,86.92
2023-04-09T16:02:48.714Z,86.33
2023-04-09T16:05:17.261Z,86.07
2023-04-09T16:07:45.633Z,86.39
2023-04-09T16:10:15.611Z,86.22
2023-04-09T16:12:44.267Z,85.96
2023-04-09T16:15:12.931Z,86.28
2023-04-09T16:17:41.544Z,88.97
2023-04-09T16:20:10.385Z,90.14
2023-04-09T16:22:38.780Z,90.29
2023-04-09T16:25:07.754Z,89.46
2023-04-09T16:27:36.210Z,89.02
2023-04-09T16:30:05.134Z,89.38
2023-04-09T16:32:33.531Z,89.12
2023-04-09T16:35:02.085Z,89.10
2023-04-09T16:37:32.110Z,89.15
2023-04-09T16:40:00.545Z,88.95
2023-04-09T16:42:29.036Z,88.06
2023-04-09T16:44:57.443Z,88.08
2023-04-09T16:47:25.954Z,87.09
2023-04-09T16:49:54.362Z,86.87
2023-04-09T16:52:22.739Z,86.83
2023-04-09T16:54:51.660Z,88.06
2023-04-09T16:57:20.001Z,87.93
2023-04-09T16:59:48.431Z,87.44
2023-04-09T17:02:16.893Z,89.16
2023-04-09T17:04:45.291Z,89.24
2023-04-09T17:07:13.732Z,89.57
2023-04-09T17:09:42.749Z,90.00
2023-04-09T17:12:11.192Z,90.18
2023-04-09T17:14:39.874Z,90.78
2023-04-09T17:17:08.494Z,91.51
2023-04-09T17:19:37.819Z,91.25
2023-04-09T17:22:06.782Z,89.76
2023-04-09T17:24:37.722Z,89.10
2023-04-09T17:27:06.581Z,90.45
2023-04-09T17:29:35.349Z,90.99
2023-04-09T17:32:03.670Z,90.86
2023-04-09T17:34:32.333Z,91.34
2023-04-09T17:37:00.966Z,91.90
2023-04-09T17:39:32.035Z,92.12
2023-04-09T17:42:01.729Z,91.67
2023-04-09T17:44:32.315Z,91.72
2023-04-09T17:47:06.748Z,91.23
2023-04-09T17:49:35.307Z,90.47
2023-04-09T17:52:03.705Z,90.20
2023-04-09T17:54:36.176Z,90.10
2023-04-09T17:57:05.586Z,92.27
2023-04-09T17:59:34.698Z,92.01
2023-04-09T18:02:03.229Z,92.90
2023-04-09T18:04:32.588Z,93.20
2023-04-09T18:07:01.177Z,91.50
2023-04-09T18:09:29.527Z,93.15
2023-04-09T18:11:58.783Z,93.57
2023-04-09T18:14:27.175Z,93.08
2023-04-09T18:16:55.556Z,92.59
2023-04-09T18:19:23.890Z,92.04
2023-04-09T18:21:52.440Z,93.01
2023-04-09T18:24:21.068Z,92.34
2023-04-09T18:26:49.466Z,92.61
2023-04-09T18:29:17.829Z,92.85
2023-04-09T18:31:46.501Z,93.96
2023-04-09T18:34:14.862Z,94.26
2023-04-09T18:36:43.819Z,93.79
2023-04-09T18:39:12.383Z,94.76
2023-04-09T18:41:41.268Z,93.50
2023-04-09T18:44:09.673Z,93.41
2023-04-09T18:46:38.200Z,92.16
2023-04-09T18:49:07.070Z,92.17
2023-04-09T18:51:35.493Z,92.21
2023-04-09T18:54:03.860Z,92.83
2023-04-09T18:56:32.255Z,93.41
2023-04-09T18:59:00.613Z,93.96
2023-04-09T19:01:29.417Z,94.17
2023-04-09T19:03:58.116Z,93.89
2023-04-09T19:06:28.133Z,93.04
2023-04-09T19:08:59.094Z,92.92
2023-04-09T19:11:27.972Z,93.09
2023-04-09T19:13:56.434Z,93.34
2023-04-09T19:16:24.891Z,93.78
2023-04-09T19:18:53.470Z,94.04
2023-04-09T19:21:21.946Z,93.69
2023-04-09T19:23:50.418Z,93.25
2023-04-09T19:26:19.179Z,93.31
2023-04-09T19:28:47.796Z,92.55
2023-04-09T19:31:17.111Z,92.41
2023-04-09T19:33:45.582Z,91.86
2023-04-09T19:36:14.924Z,91.45
2023-04-09T19:38:43.317Z,91.27
2023-04-09T19:41:11.707Z,92.09
2023-04-09T19:43:40.086Z,92.54
2023-04-09T19:46:09.495Z,91.10
2023-04-09T19:48:38.867Z,91.86
2023-04-09T19:51:07.785Z,93.09
2023-04-09T19:53:37.308Z,93.98
2023-04-09T19:56:05.805Z,93.79
2023-04-09T19:58:34.621Z,93.61
2023-04-09T20:01:03.471Z,92.75
2023-04-09T20:03:34.219Z,94.02
2023-04-09T20:06:09.325Z,93.31
2023-04-09T20:08:38.832Z,92.29
2023-04-09T20:11:07.760Z,92.36
2023-04-09T20:13:36.116Z,91.73
2023-04-09T20:16:04.848Z,91.38
2023-04-09T20:18:33.292Z,92.31
2023-04-09T20:21:01.615Z,92.23
2023-04-09T20:23:31.131Z,92.41
2023-04-09T20:25:59.480Z,92.36
2023-04-09T20:28:28.782Z,92.13
2023-04-09T20:30:57.535Z,91.60
2023-04-09T20:33:25.969Z,91.37
2023-04-09T20:35:54.358Z,92.01
2023-04-09T20:38:23.336Z,91.83
2023-04-09T20:40:53.567Z,91.74
2023-04-09T20:43:22.354Z,91.30
2023-04-09T20:45:50.997Z,90.92
2023-04-09T20:48:19.905Z,90.78
2023-04-09T20:50:48.549Z,91.48
2023-04-09T20:53:16.995Z,91.79
2023-04-09T20:55:45.450Z,92.48
2023-04-09T20:58:13.816Z,90.00
2023-04-09T21:00:42.536Z,89.79
2023-04-09T21:03:10.990Z,90.84
2023-04-09T21:05:39.451Z,92.65
2023-04-09T21:08:08.067Z,93.14
2023-04-09T21:10:36.401Z,93.63
2023-04-09T21:13:04.750Z,94.29
2023-04-09T21:15:33.135Z,94.96
2023-04-09T21:18:01.591Z,95.62
2023-04-09T21:20:29.983Z,96.44
2023-04-09T21:22:58.357Z,96.10
2023-04-09T21:25:30.359Z,96.28
2023-04-09T21:27:58.761Z,96.17
2023-04-09T21:30:27.209Z,96.62
2023-04-09T21:32:55.629Z,96.36
2023-04-09T21:35:24.086Z,97.00
2023-04-09T21:37:52.627Z,97.65
2023-04-09T21:40:21.212Z,98.01
2023-04-09T21:42:49.665Z,98.33
2023-04-09T21:45:18.478Z,98.61
2023-04-09T21:47:47.150Z,98.01
2023-04-09T21:50:16.023Z,98.37
2023-04-09T21:52:47.627Z,99.00
2023-04-09T21:55:17.037Z,99.19
2023-04-09T21:57:45.477Z,99.46
2023-04-09T22:00:17.181Z,98.85
2023-04-09T22:02:45.683Z,98.15
2023-04-09T22:05:14.220Z,98.64
2023-04-09T22:07:43.733Z,98.73
2023-04-09T22:10:12.255Z,99.49
2023-04-09T22:12:40.646Z,99.64
2023-04-09T22:15:09.575Z,99.78
2023-04-09T22:17:37.990Z,100.00
2023-04-09T22:20:07.969Z,99.81
2023-04-09T22:22:36.570Z,99.98
2023-04-09T22:25:07.766Z,100.00
2023-04-09T22:27:36.280Z,100.00
2023-04-09T22:30:05.078Z,100.00
2023-04-09T22:32:34.313Z,100.00
2023-04-09T22:35:02.910Z,100.00
2023-04-09T22:37:31.803Z,100.00
2023-04-09T22:40:00.190Z,100.00
2023-04-09T22:42:28.641Z,100.00
2023-04-09T22:44:56.990Z,100.00
2023-04-09T22:47:25.432Z,100.00
2023-04-09T22:49:55.848Z,100.00
2023-04-09T22:52:24.207Z,100.00
2023-04-09T22:54:52.550Z,100.00
2023-04-09T22:57:20.956Z,100.00
2023-04-09T22:59:49.357Z,100.00
2023-04-09T23:02:18.043Z,100.00
2023-04-09T23:04:46.562Z,100.00
2023-04-09T23:07:14.935Z,100.00
2023-04-09T23:09:43.350Z,100.00
2023-04-09T23:12:11.727Z,100.00
2023-04-09T23:14:40.099Z,100.00
2023-04-09T23:17:08.492Z,100.00
2023-04-09T23:19:36.927Z,100.00
2023-04-09T23:22:05.298Z,100.00
2023-04-09T23:24:33.639Z,100.00
2023-04-09T23:27:02.208Z,100.00
2023-04-09T23:29:30.557Z,100.00
2023-04-09T23:31:59.061Z,100.00
2023-04-09T23:34:27.481Z,100.00
2023-04-09T23:36:55.894Z,100.00
2023-04-09T23:39:24.289Z,100.00
2023-04-09T23:41:52.639Z,100.00
2023-04-09T23:44:21.163Z,100.00
2023-04-09T23:46:49.578Z,100.00
2023-04-09T23:49:18.034Z,100.00
2023-04-09T23:51:46.372Z,100.00
2023-04-09T23:54:14.725Z,100.00
2023-04-09T23:56:43.342Z,100.00
2023-04-09T23:59:11.725Z,100.00
